sensor_id;sensor_type;location;lat;lon;timestamp;temperature;humidity
23683;DHT22;24897;53.514;10.482;2023-02-22T00:01:31;8.80;99.90
23683;DHT22;24897;53.514;10.482;2023-02-22T00:04:19;8.90;99.90
23683;DHT22;24897;53.514;10.482;2023-02-22T00:07:05;8.90;99.90
23683;DHT22;24897;53.514;10.482;2023-02-22T00:15:21;9.00;99.90
23683;DHT22;24897;53.514;10.482;2023-02-22T00:18:07;9.00;99.90
23683;DHT22;24897;53.514;10.482;2023-02-22T00:20:58;8.90;99.90
23683;DHT22;24897;53.514;10.482;2023-02-22T00:23:45;9.20;99.90
23683;DHT22;24897;53.514;10.482;2023-02-22T00:26:32;8.70;99.90
23683;DHT22;24897;53.514;10.482;2023-02-22T00:40:18;8.80;99.90
23683;DHT22;24897;53.514;10.482;2023-02-22T00:43:05;8.70;99.90
23683;DHT22;24897;53.514;10.482;2023-02-22T00:48:34;8.80;99.90
23683;DHT22;24897;53.514;10.482;2023-02-22T00:59:33;9.00;99.90
23683;DHT22;24897;53.514;10.482;2023-02-22T01:05:02;9.20;99.90
23683;DHT22;24897;53.514;10.482;2023-02-22T01:07:47;10.00;99.90
23683;DHT22;24897;53.514;10.482;2023-02-22T01:16:03;9.20;99.90
23683;DHT22;24897;53.514;10.482;2023-02-22T01:18:51;8.70;99.90
23683;DHT22;24897;53.514;10.482;2023-02-22T01:24:20;8.80;99.90
23683;DHT22;24897;53.514;10.482;2023-02-22T01:27:04;8.60;99.90
23683;DHT22;24897;53.514;10.482;2023-02-22T01:29:48;8.90;99.90
23683;DHT22;24897;53.514;10.482;2023-02-22T01:32:34;8.10;99.90
23683;DHT22;24897;53.514;10.482;2023-02-22T01:35:21;8.80;99.90
23683;DHT22;24897;53.514;10.482;2023-02-22T01:38:06;8.60;99.90
23683;DHT22;24897;53.514;10.482;2023-02-22T01:40:51;8.90;99.90
23683;DHT22;24897;53.514;10.482;2023-02-22T01:43:36;8.80;99.90
23683;DHT22;24897;53.514;10.482;2023-02-22T01:46:23;9.40;99.90
23683;DHT22;24897;53.514;10.482;2023-02-22T01:51:56;8.60;99.90
23683;DHT22;24897;53.514;10.482;2023-02-22T01:54:43;8.90;99.90
23683;DHT22;24897;53.514;10.482;2023-02-22T01:57:33;8.90;99.90
23683;DHT22;24897;53.514;10.482;2023-02-22T02:00:19;10.00;99.90
23683;DHT22;24897;53.514;10.482;2023-02-22T02:03:10;8.90;99.90
23683;DHT22;24897;53.514;10.482;2023-02-22T02:05:58;9.10;99.90
23683;DHT22;24897;53.514;10.482;2023-02-22T02:11:39;9.00;99.90
23683;DHT22;24897;53.514;10.482;2023-02-22T02:17:15;9.00;99.90
23683;DHT22;24897;53.514;10.482;2023-02-22T02:27:07;8.70;99.90
23683;DHT22;24897;53.514;10.482;2023-02-22T02:29:58;8.90;99.90
23683;DHT22;24897;53.514;10.482;2023-02-22T02:39:12;8.80;99.90
23683;DHT22;24897;53.514;10.482;2023-02-22T02:42:04;9.00;99.90
23683;DHT22;24897;53.514;10.482;2023-02-22T02:44:59;8.90;99.90
23683;DHT22;24897;53.514;10.482;2023-02-22T02:47:50;8.60;99.90
23683;DHT22;24897;53.514;10.482;2023-02-22T02:50:47;9.10;99.90
23683;DHT22;24897;53.514;10.482;2023-02-22T02:53:38;9.20;99.90
23683;DHT22;24897;53.514;10.482;2023-02-22T02:56:23;8.80;99.90
23683;DHT22;24897;53.514;10.482;2023-02-22T02:59:29;8.80;99.90
23683;DHT22;24897;53.514;10.482;2023-02-22T03:11:07;8.70;99.90
23683;DHT22;24897;53.514;10.482;2023-02-22T03:19:39;8.70;99.90
23683;DHT22;24897;53.514;10.482;2023-02-22T03:22:47;8.70;99.90
23683;DHT22;24897;53.514;10.482;2023-02-22T03:25:40;8.40;99.90
23683;DHT22;24897;53.514;10.482;2023-02-22T03:28:28;8.80;99.90
23683;DHT22;24897;53.514;10.482;2023-02-22T03:31:17;8.70;99.90
23683;DHT22;24897;53.514;10.482;2023-02-22T03:34:07;8.80;99.90
23683;DHT22;24897;53.514;10.482;2023-02-22T03:36:56;8.20;99.90
23683;DHT22;24897;53.514;10.482;2023-02-22T03:39:43;8.70;99.90
23683;DHT22;24897;53.514;10.482;2023-02-22T03:42:31;8.70;99.90
23683;DHT22;24897;53.514;10.482;2023-02-22T03:45:18;8.20;99.90
23683;DHT22;24897;53.514;10.482;2023-02-22T03:48:15;8.70;99.90
23683;DHT22;24897;53.514;10.482;2023-02-22T03:53:47;8.80;99.90
23683;DHT22;24897;53.514;10.482;2023-02-22T03:56:38;8.60;99.90
23683;DHT22;24897;53.514;10.482;2023-02-22T04:02:14;9.10;99.90
23683;DHT22;24897;53.514;10.482;2023-02-22T04:05:02;9.10;99.90
23683;DHT22;24897;53.514;10.482;2023-02-22T04:18:45;8.20;99.90
23683;DHT22;24897;53.514;10.482;2023-02-22T04:29:44;8.80;99.90
23683;DHT22;24897;53.514;10.482;2023-02-22T04:32:28;7.90;99.90
23683;DHT22;24897;53.514;10.482;2023-02-22T04:35:12;8.70;99.90
23683;DHT22;24897;53.514;10.482;2023-02-22T04:37:56;9.40;99.90
23683;DHT22;24897;53.514;10.482;2023-02-22T04:46:11;8.50;99.90
23683;DHT22;24897;53.514;10.482;2023-02-22T04:51:40;9.00;99.90
23683;DHT22;24897;53.514;10.482;2023-02-22T04:59:55;8.50;99.90
23683;DHT22;24897;53.514;10.482;2023-02-22T05:02:39;8.40;99.90
23683;DHT22;24897;53.514;10.482;2023-02-22T05:08:08;7.80;99.90
23683;DHT22;24897;53.514;10.482;2023-02-22T05:10:52;8.90;99.90
23683;DHT22;24897;53.514;10.482;2023-02-22T05:13:37;8.50;99.90
23683;DHT22;24897;53.514;10.482;2023-02-22T05:16:21;8.30;99.90
23683;DHT22;24897;53.514;10.482;2023-02-22T05:19:06;8.60;99.90
23683;DHT22;24897;53.514;10.482;2023-02-22T05:24:35;8.50;99.90
23683;DHT22;24897;53.514;10.482;2023-02-22T05:27:19;8.40;99.90
23683;DHT22;24897;53.514;10.482;2023-02-22T05:30:04;8.60;99.90
23683;DHT22;24897;53.514;10.482;2023-02-22T05:32:49;8.50;99.90
23683;DHT22;24897;53.514;10.482;2023-02-22T05:41:07;8.50;99.90
23683;DHT22;24897;53.514;10.482;2023-02-22T05:52:06;8.70;99.90
23683;DHT22;24897;53.514;10.482;2023-02-22T05:57:35;8.40;99.90
23683;DHT22;24897;53.514;10.482;2023-02-22T06:00:26;8.60;99.90
23683;DHT22;24897;53.514;10.482;2023-02-22T06:05:55;9.60;99.90
23683;DHT22;24897;53.514;10.482;2023-02-22T06:11:25;8.50;99.90
23683;DHT22;24897;53.514;10.482;2023-02-22T06:14:10;8.50;99.90
23683;DHT22;24897;53.514;10.482;2023-02-22T06:16:55;8.70;99.90
23683;DHT22;24897;53.514;10.482;2023-02-22T06:19:40;8.90;99.90
23683;DHT22;24897;53.514;10.482;2023-02-22T06:22:24;8.70;99.90
23683;DHT22;24897;53.514;10.482;2023-02-22T06:25:09;8.50;99.90
23683;DHT22;24897;53.514;10.482;2023-02-22T06:27:53;8.50;99.90
23683;DHT22;24897;53.514;10.482;2023-02-22T06:30:37;8.20;99.90
23683;DHT22;24897;53.514;10.482;2023-02-22T06:33:22;8.20;99.90
23683;DHT22;24897;53.514;10.482;2023-02-22T06:36:07;8.50;99.90
23683;DHT22;24897;53.514;10.482;2023-02-22T06:38:52;8.80;99.90
23683;DHT22;24897;53.514;10.482;2023-02-22T06:41:36;8.50;99.90
23683;DHT22;24897;53.514;10.482;2023-02-22T06:44:21;8.30;99.90
23683;DHT22;24897;53.514;10.482;2023-02-22T06:47:05;8.40;99.90
23683;DHT22;24897;53.514;10.482;2023-02-22T06:49:56;8.60;99.90
23683;DHT22;24897;53.514;10.482;2023-02-22T06:52:42;8.30;99.90
23683;DHT22;24897;53.514;10.482;2023-02-22T06:55:28;8.00;99.90
23683;DHT22;24897;53.514;10.482;2023-02-22T06:58:13;9.00;99.90
23683;DHT22;24897;53.514;10.482;2023-02-22T07:00:57;8.50;99.90
23683;DHT22;24897;53.514;10.482;2023-02-22T07:03:41;8.50;99.90
23683;DHT22;24897;53.514;10.482;2023-02-22T07:06:25;8.50;99.90
23683;DHT22;24897;53.514;10.482;2023-02-22T07:09:10;8.60;99.90
23683;DHT22;24897;53.514;10.482;2023-02-22T07:11:55;8.50;99.90
23683;DHT22;24897;53.514;10.482;2023-02-22T07:14:40;8.60;99.90
23683;DHT22;24897;53.514;10.482;2023-02-22T07:17:24;8.50;99.90
23683;DHT22;24897;53.514;10.482;2023-02-22T07:20:09;8.20;99.90
23683;DHT22;24897;53.514;10.482;2023-02-22T07:25:38;8.10;99.90
23683;DHT22;24897;53.514;10.482;2023-02-22T07:28:22;8.60;99.90
23683;DHT22;24897;53.514;10.482;2023-02-22T07:31:06;8.50;99.90
23683;DHT22;24897;53.514;10.482;2023-02-22T07:33:51;8.90;99.90
23683;DHT22;24897;53.514;10.482;2023-02-22T07:39:20;9.30;99.90
23683;DHT22;24897;53.514;10.482;2023-02-22T07:42:04;8.70;99.90
23683;DHT22;24897;53.514;10.482;2023-02-22T07:44:48;9.10;99.90
23683;DHT22;24897;53.514;10.482;2023-02-22T07:47:32;9.60;99.90
23683;DHT22;24897;53.514;10.482;2023-02-22T07:50:18;9.00;99.90
23683;DHT22;24897;53.514;10.482;2023-02-22T07:53:06;8.90;99.90
23683;DHT22;24897;53.514;10.482;2023-02-22T07:55:51;8.80;99.90
23683;DHT22;24897;53.514;10.482;2023-02-22T07:58:35;8.90;99.90
23683;DHT22;24897;53.514;10.482;2023-02-22T08:01:19;9.20;99.90
23683;DHT22;24897;53.514;10.482;2023-02-22T08:04:04;9.20;99.90
23683;DHT22;24897;53.514;10.482;2023-02-22T08:06:48;9.30;99.90
23683;DHT22;24897;53.514;10.482;2023-02-22T08:09:33;9.40;99.90
23683;DHT22;24897;53.514;10.482;2023-02-22T08:12:17;9.20;99.90
23683;DHT22;24897;53.514;10.482;2023-02-22T08:15:03;9.10;99.90
23683;DHT22;24897;53.514;10.482;2023-02-22T08:17:47;9.10;99.90
23683;DHT22;24897;53.514;10.482;2023-02-22T08:20:31;9.50;99.90
23683;DHT22;24897;53.514;10.482;2023-02-22T08:23:16;9.20;99.90
23683;DHT22;24897;53.514;10.482;2023-02-22T08:26:09;9.30;99.90
23683;DHT22;24897;53.514;10.482;2023-02-22T08:28:54;9.30;99.90
23683;DHT22;24897;53.514;10.482;2023-02-22T08:31:38;9.20;99.90
23683;DHT22;24897;53.514;10.482;2023-02-22T08:34:23;9.30;99.90
23683;DHT22;24897;53.514;10.482;2023-02-22T08:37:07;9.30;99.90
23683;DHT22;24897;53.514;10.482;2023-02-22T08:39:52;9.40;99.90
23683;DHT22;24897;53.514;10.482;2023-02-22T08:42:36;9.30;99.90
23683;DHT22;24897;53.514;10.482;2023-02-22T08:45:20;9.90;99.90
23683;DHT22;24897;53.514;10.482;2023-02-22T08:48:04;9.40;99.90
23683;DHT22;24897;53.514;10.482;2023-02-22T08:50:48;9.60;99.90
23683;DHT22;24897;53.514;10.482;2023-02-22T08:53:32;9.50;99.90
23683;DHT22;24897;53.514;10.482;2023-02-22T08:56:16;9.50;99.90
23683;DHT22;24897;53.514;10.482;2023-02-22T08:59:01;9.80;99.90
23683;DHT22;24897;53.514;10.482;2023-02-22T09:01:45;8.70;99.90
23683;DHT22;24897;53.514;10.482;2023-02-22T09:04:29;9.60;99.90
23683;DHT22;24897;53.514;10.482;2023-02-22T09:07:14;9.80;99.90
23683;DHT22;24897;53.514;10.482;2023-02-22T09:09:58;9.80;99.90
23683;DHT22;24897;53.514;10.482;2023-02-22T09:12:43;9.90;99.90
23683;DHT22;24897;53.514;10.482;2023-02-22T09:15:27;9.90;99.90
23683;DHT22;24897;53.514;10.482;2023-02-22T09:18:12;10.40;99.90
23683;DHT22;24897;53.514;10.482;2023-02-22T09:20:57;10.30;99.90
23683;DHT22;24897;53.514;10.482;2023-02-22T09:23:42;9.50;99.90
23683;DHT22;24897;53.514;10.482;2023-02-22T09:26:26;10.10;99.90
23683;DHT22;24897;53.514;10.482;2023-02-22T09:29:10;9.70;99.90
23683;DHT22;24897;53.514;10.482;2023-02-22T09:31:55;9.70;99.90
23683;DHT22;24897;53.514;10.482;2023-02-22T09:40:17;9.60;99.90
23683;DHT22;24897;53.514;10.482;2023-02-22T09:43:26;8.90;99.90
23683;DHT22;24897;53.514;10.482;2023-02-22T09:46:28;9.50;99.90
23683;DHT22;24897;53.514;10.482;2023-02-22T09:49:23;10.20;99.90
23683;DHT22;24897;53.514;10.482;2023-02-22T09:52:15;9.50;99.90
23683;DHT22;24897;53.514;10.482;2023-02-22T09:55:08;10.40;99.90
23683;DHT22;24897;53.514;10.482;2023-02-22T09:57:57;9.90;99.90
23683;DHT22;24897;53.514;10.482;2023-02-22T10:00:43;10.50;99.90
23683;DHT22;24897;53.514;10.482;2023-02-22T10:03:34;10.30;99.90
23683;DHT22;24897;53.514;10.482;2023-02-22T10:06:22;10.10;99.90
23683;DHT22;24897;53.514;10.482;2023-02-22T10:09:08;9.70;99.90
23683;DHT22;24897;53.514;10.482;2023-02-22T10:12:01;10.40;99.90
23683;DHT22;24897;53.514;10.482;2023-02-22T10:18:20;9.80;99.90
23683;DHT22;24897;53.514;10.482;2023-02-22T10:26:46;9.90;99.90
23683;DHT22;24897;53.514;10.482;2023-02-22T10:29:40;9.80;99.90
23683;DHT22;24897;53.514;10.482;2023-02-22T10:32:30;10.30;99.90
23683;DHT22;24897;53.514;10.482;2023-02-22T10:35:37;10.20;99.90
23683;DHT22;24897;53.514;10.482;2023-02-22T10:38:32;10.80;99.90
23683;DHT22;24897;53.514;10.482;2023-02-22T10:41:29;11.40;99.90
23683;DHT22;24897;53.514;10.482;2023-02-22T10:47:01;10.20;99.90
23683;DHT22;24897;53.514;10.482;2023-02-22T10:49:50;11.10;99.90
23683;DHT22;24897;53.514;10.482;2023-02-22T10:52:34;10.50;99.90
23683;DHT22;24897;53.514;10.482;2023-02-22T10:58:07;10.80;99.90
23683;DHT22;24897;53.514;10.482;2023-02-22T11:03:36;11.30;99.90
23683;DHT22;24897;53.514;10.482;2023-02-22T11:06:21;10.80;99.90
23683;DHT22;24897;53.514;10.482;2023-02-22T11:09:10;11.00;99.90
23683;DHT22;24897;53.514;10.482;2023-02-22T11:12:10;11.80;99.90
23683;DHT22;24897;53.514;10.482;2023-02-22T11:14:56;11.00;99.90
23683;DHT22;24897;53.514;10.482;2023-02-22T11:17:40;11.20;99.90
23683;DHT22;24897;53.514;10.482;2023-02-22T11:20:31;10.60;99.90
23683;DHT22;24897;53.514;10.482;2023-02-22T11:23:20;11.40;99.90
23683;DHT22;24897;53.514;10.482;2023-02-22T11:26:12;11.40;99.90
23683;DHT22;24897;53.514;10.482;2023-02-22T11:29:09;11.80;99.90
23683;DHT22;24897;53.514;10.482;2023-02-22T11:31:55;12.00;99.90
23683;DHT22;24897;53.514;10.482;2023-02-22T11:34:40;12.10;99.90
23683;DHT22;24897;53.514;10.482;2023-02-22T11:37:30;11.50;99.90
23683;DHT22;24897;53.514;10.482;2023-02-22T11:43:07;12.50;99.90
23683;DHT22;24897;53.514;10.482;2023-02-22T11:49:04;13.10;99.90
23683;DHT22;24897;53.514;10.482;2023-02-22T11:55:23;13.00;99.90
23683;DHT22;24897;53.514;10.482;2023-02-22T11:58:29;13.10;99.90
23683;DHT22;24897;53.514;10.482;2023-02-22T12:01:42;13.20;99.90
23683;DHT22;24897;53.514;10.482;2023-02-22T12:20:04;13.50;99.90
23683;DHT22;24897;53.514;10.482;2023-02-22T12:24:15;13.30;99.90
23683;DHT22;24897;53.514;10.482;2023-02-22T12:26:32;13.10;99.90
23683;DHT22;24897;53.514;10.482;2023-02-22T12:32:23;12.80;99.90
23683;DHT22;24897;53.514;10.482;2023-02-22T12:38:29;13.20;99.90
23683;DHT22;24897;53.514;10.482;2023-02-22T12:44:31;13.40;99.90
23683;DHT22;24897;53.514;10.482;2023-02-22T12:47:21;13.50;99.90
23683;DHT22;24897;53.514;10.482;2023-02-22T12:50:23;13.30;99.90
23683;DHT22;24897;53.514;10.482;2023-02-22T12:59:13;13.30;99.90
23683;DHT22;24897;53.514;10.482;2023-02-22T13:02:17;13.40;99.90
23683;DHT22;24897;53.514;10.482;2023-02-22T13:05:04;13.20;99.90
23683;DHT22;24897;53.514;10.482;2023-02-22T13:11:21;13.10;99.90
23683;DHT22;24897;53.514;10.482;2023-02-22T13:17:38;13.40;99.90
23683;DHT22;24897;53.514;10.482;2023-02-22T13:20:46;13.30;99.90
23683;DHT22;24897;53.514;10.482;2023-02-22T13:27:21;13.00;99.90
23683;DHT22;24897;53.514;10.482;2023-02-22T13:30:21;13.00;99.90
23683;DHT22;24897;53.514;10.482;2023-02-22T13:52:17;12.90;99.90
23683;DHT22;24897;53.514;10.482;2023-02-22T13:55:24;12.60;99.90
23683;DHT22;24897;53.514;10.482;2023-02-22T13:58:11;12.70;99.90
23683;DHT22;24897;53.514;10.482;2023-02-22T14:00:57;12.60;99.90
23683;DHT22;24897;53.514;10.482;2023-02-22T14:06:38;12.20;99.90
23683;DHT22;24897;53.514;10.482;2023-02-22T14:09:49;12.60;99.90
23683;DHT22;24897;53.514;10.482;2023-02-22T14:12:46;12.40;99.90
23683;DHT22;24897;53.514;10.482;2023-02-22T14:15:30;12.60;99.90
23683;DHT22;24897;53.514;10.482;2023-02-22T14:18:17;13.20;99.90
23683;DHT22;24897;53.514;10.482;2023-02-22T14:21:08;12.50;99.90
23683;DHT22;24897;53.514;10.482;2023-02-22T14:23:54;12.60;99.90
23683;DHT22;24897;53.514;10.482;2023-02-22T14:26:40;12.60;99.90
23683;DHT22;24897;53.514;10.482;2023-02-22T14:29:36;13.60;99.90
23683;DHT22;24897;53.514;10.482;2023-02-22T14:32:30;12.40;99.90
23683;DHT22;24897;53.514;10.482;2023-02-22T14:35:16;12.70;99.90
23683;DHT22;24897;53.514;10.482;2023-02-22T14:38:02;13.10;99.90
23683;DHT22;24897;53.514;10.482;2023-02-22T14:40:48;12.50;99.90
23683;DHT22;24897;53.514;10.482;2023-02-22T14:43:35;12.20;99.90
23683;DHT22;24897;53.514;10.482;2023-02-22T14:46:22;12.50;99.90
23683;DHT22;24897;53.514;10.482;2023-02-22T14:49:11;12.50;99.90
23683;DHT22;24897;53.514;10.482;2023-02-22T14:52:10;12.40;99.90
23683;DHT22;24897;53.514;10.482;2023-02-22T14:55:19;12.60;99.90
23683;DHT22;24897;53.514;10.482;2023-02-22T14:58:14;12.50;99.90
23683;DHT22;24897;53.514;10.482;2023-02-22T15:04:17;12.70;99.90
23683;DHT22;24897;53.514;10.482;2023-02-22T15:07:18;13.30;99.90
23683;DHT22;24897;53.514;10.482;2023-02-22T15:12:56;11.70;99.90
23683;DHT22;24897;53.514;10.482;2023-02-22T15:16:02;12.70;99.90
23683;DHT22;24897;53.514;10.482;2023-02-22T15:18:56;12.60;99.90
23683;DHT22;24897;53.514;10.482;2023-02-22T15:21:44;12.20;99.90
23683;DHT22;24897;53.514;10.482;2023-02-22T15:24:32;12.40;99.90
23683;DHT22;24897;53.514;10.482;2023-02-22T15:27:18;12.00;99.90
23683;DHT22;24897;53.514;10.482;2023-02-22T15:30:15;12.10;99.90
23683;DHT22;24897;53.514;10.482;2023-02-22T15:33:18;12.10;99.90
23683;DHT22;24897;53.514;10.482;2023-02-22T15:36:16;12.80;99.90
23683;DHT22;24897;53.514;10.482;2023-02-22T15:39:02;12.00;99.90
23683;DHT22;24897;53.514;10.482;2023-02-22T15:42:05;11.90;99.90
23683;DHT22;24897;53.514;10.482;2023-02-22T15:44:52;12.10;99.90
23683;DHT22;24897;53.514;10.482;2023-02-22T15:47:37;11.90;99.90
23683;DHT22;24897;53.514;10.482;2023-02-22T15:50:30;11.30;99.90
23683;DHT22;24897;53.514;10.482;2023-02-22T15:56:07;11.80;99.90
23683;DHT22;24897;53.514;10.482;2023-02-22T15:58:58;11.70;99.90
23683;DHT22;24897;53.514;10.482;2023-02-22T16:01:45;11.80;99.90
23683;DHT22;24897;53.514;10.482;2023-02-22T16:04:31;11.80;99.90
23683;DHT22;24897;53.514;10.482;2023-02-22T16:07:15;11.80;99.90
23683;DHT22;24897;53.514;10.482;2023-02-22T16:10:00;11.70;99.90
23683;DHT22;24897;53.514;10.482;2023-02-22T16:13:08;11.70;99.90
23683;DHT22;24897;53.514;10.482;2023-02-22T16:18:48;11.30;99.90
23683;DHT22;24897;53.514;10.482;2023-02-22T16:21:55;11.60;99.90
23683;DHT22;24897;53.514;10.482;2023-02-22T16:27:25;11.90;99.90
23683;DHT22;24897;53.514;10.482;2023-02-22T16:33:09;11.90;99.90
23683;DHT22;24897;53.514;10.482;2023-02-22T16:36:04;12.50;99.90
23683;DHT22;24897;53.514;10.482;2023-02-22T16:38:48;11.50;99.90
23683;DHT22;24897;53.514;10.482;2023-02-22T16:44:19;10.40;99.90
23683;DHT22;24897;53.514;10.482;2023-02-22T16:47:03;11.40;99.90
23683;DHT22;24897;53.514;10.482;2023-02-22T16:49:49;11.40;99.90
23683;DHT22;24897;53.514;10.482;2023-02-22T16:52:38;11.50;99.90
23683;DHT22;24897;53.514;10.482;2023-02-22T16:55:23;11.70;99.90
23683;DHT22;24897;53.514;10.482;2023-02-22T16:58:07;11.70;99.90
23683;DHT22;24897;53.514;10.482;2023-02-22T17:00:53;10.90;99.90
23683;DHT22;24897;53.514;10.482;2023-02-22T17:03:38;11.30;99.90
23683;DHT22;24897;53.514;10.482;2023-02-22T17:06:22;10.90;99.90
23683;DHT22;24897;53.514;10.482;2023-02-22T17:09:06;10.70;99.90
23683;DHT22;24897;53.514;10.482;2023-02-22T17:11:51;11.10;99.90
23683;DHT22;24897;53.514;10.482;2023-02-22T17:14:36;11.20;99.90
23683;DHT22;24897;53.514;10.482;2023-02-22T17:17:24;11.10;99.90
23683;DHT22;24897;53.514;10.482;2023-02-22T17:20:10;10.80;99.90
23683;DHT22;24897;53.514;10.482;2023-02-22T17:23:00;11.00;99.90
23683;DHT22;24897;53.514;10.482;2023-02-22T17:25:51;10.90;99.90
23683;DHT22;24897;53.514;10.482;2023-02-22T17:28:39;10.80;99.90
23683;DHT22;24897;53.514;10.482;2023-02-22T17:31:26;11.00;99.90
23683;DHT22;24897;53.514;10.482;2023-02-22T17:34:11;10.80;99.90
23683;DHT22;24897;53.514;10.482;2023-02-22T17:36:55;10.60;99.90
23683;DHT22;24897;53.514;10.482;2023-02-22T17:39:39;11.00;99.90
23683;DHT22;24897;53.514;10.482;2023-02-22T17:42:23;11.20;99.90
23683;DHT22;24897;53.514;10.482;2023-02-22T17:45:09;10.60;99.90
23683;DHT22;24897;53.514;10.482;2023-02-22T17:47:57;11.10;99.90
23683;DHT22;24897;53.514;10.482;2023-02-22T17:50:43;10.70;99.90
23683;DHT22;24897;53.514;10.482;2023-02-22T17:53:29;10.60;99.90
23683;DHT22;24897;53.514;10.482;2023-02-22T17:56:15;10.80;99.90
23683;DHT22;24897;53.514;10.482;2023-02-22T17:59:01;10.40;99.90
23683;DHT22;24897;53.514;10.482;2023-02-22T18:01:45;10.70;99.90
23683;DHT22;24897;53.514;10.482;2023-02-22T18:04:32;10.70;99.90
23683;DHT22;24897;53.514;10.482;2023-02-22T18:07:17;10.70;99.90
23683;DHT22;24897;53.514;10.482;2023-02-22T18:10:04;10.60;99.90
23683;DHT22;24897;53.514;10.482;2023-02-22T18:12:55;11.70;99.90
23683;DHT22;24897;53.514;10.482;2023-02-22T18:15:39;10.50;99.90
23683;DHT22;24897;53.514;10.482;2023-02-22T18:18:23;10.30;99.90
23683;DHT22;24897;53.514;10.482;2023-02-22T18:21:07;10.70;99.90
23683;DHT22;24897;53.514;10.482;2023-02-22T18:23:51;10.50;99.90
23683;DHT22;24897;53.514;10.482;2023-02-22T18:26:38;10.50;99.90
23683;DHT22;24897;53.514;10.482;2023-02-22T18:34:56;10.90;99.90
23683;DHT22;24897;53.514;10.482;2023-02-22T18:37:41;11.40;99.90
23683;DHT22;24897;53.514;10.482;2023-02-22T18:40:27;10.40;99.90
23683;DHT22;24897;53.514;10.482;2023-02-22T18:43:11;10.50;99.90
23683;DHT22;24897;53.514;10.482;2023-02-22T18:46:13;10.90;99.90
23683;DHT22;24897;53.514;10.482;2023-02-22T18:48:58;10.30;99.90
23683;DHT22;24897;53.514;10.482;2023-02-22T18:51:42;10.30;99.90
23683;DHT22;24897;53.514;10.482;2023-02-22T18:54:27;10.30;99.90
23683;DHT22;24897;53.514;10.482;2023-02-22T18:57:12;10.30;99.90
23683;DHT22;24897;53.514;10.482;2023-02-22T18:59:56;10.20;99.90
23683;DHT22;24897;53.514;10.482;2023-02-22T19:02:41;10.20;99.90
23683;DHT22;24897;53.514;10.482;2023-02-22T19:05:26;10.20;99.90
23683;DHT22;24897;53.514;10.482;2023-02-22T19:08:10;10.10;99.90
23683;DHT22;24897;53.514;10.482;2023-02-22T19:10:54;10.10;99.90
23683;DHT22;24897;53.514;10.482;2023-02-22T19:13:38;10.10;99.90
23683;DHT22;24897;53.514;10.482;2023-02-22T19:16:24;10.00;99.90
23683;DHT22;24897;53.514;10.482;2023-02-22T19:19:08;10.20;99.90
23683;DHT22;24897;53.514;10.482;2023-02-22T19:21:52;10.00;99.90
23683;DHT22;24897;53.514;10.482;2023-02-22T19:24:40;10.00;99.90
23683;DHT22;24897;53.514;10.482;2023-02-22T19:27:24;10.00;99.90
23683;DHT22;24897;53.514;10.482;2023-02-22T19:30:11;10.00;99.90
23683;DHT22;24897;53.514;10.482;2023-02-22T19:32:56;9.90;99.90
23683;DHT22;24897;53.514;10.482;2023-02-22T19:35:40;9.90;99.90
23683;DHT22;24897;53.514;10.482;2023-02-22T19:38:31;9.90;99.90
23683;DHT22;24897;53.514;10.482;2023-02-22T19:41:18;9.80;99.90
23683;DHT22;24897;53.514;10.482;2023-02-22T19:44:04;9.80;99.90
23683;DHT22;24897;53.514;10.482;2023-02-22T19:46:48;9.80;99.90
23683;DHT22;24897;53.514;10.482;2023-02-22T19:49:34;9.80;99.90
23683;DHT22;24897;53.514;10.482;2023-02-22T19:52:19;9.70;99.90
23683;DHT22;24897;53.514;10.482;2023-02-22T19:55:05;9.70;99.90
23683;DHT22;24897;53.514;10.482;2023-02-22T19:57:55;9.70;99.90
23683;DHT22;24897;53.514;10.482;2023-02-22T20:00:39;9.80;99.90
23683;DHT22;24897;53.514;10.482;2023-02-22T20:03:24;9.60;99.90
23683;DHT22;24897;53.514;10.482;2023-02-22T20:06:10;9.60;99.90
23683;DHT22;24897;53.514;10.482;2023-02-22T20:08:55;9.60;99.90
23683;DHT22;24897;53.514;10.482;2023-02-22T20:11:39;9.50;99.90
23683;DHT22;24897;53.514;10.482;2023-02-22T20:14:25;9.50;99.90
23683;DHT22;24897;53.514;10.482;2023-02-22T20:17:11;9.50;99.90
23683;DHT22;24897;53.514;10.482;2023-02-22T20:19:56;9.50;99.90
23683;DHT22;24897;53.514;10.482;2023-02-22T20:22:40;9.50;99.90
23683;DHT22;24897;53.514;10.482;2023-02-22T20:25:24;9.50;99.90
23683;DHT22;24897;53.514;10.482;2023-02-22T20:28:08;9.40;99.90
23683;DHT22;24897;53.514;10.482;2023-02-22T20:30:53;9.40;99.90
23683;DHT22;24897;53.514;10.482;2023-02-22T20:33:37;9.40;99.90
23683;DHT22;24897;53.514;10.482;2023-02-22T20:36:27;9.30;99.90
23683;DHT22;24897;53.514;10.482;2023-02-22T20:39:12;9.30;99.90
23683;DHT22;24897;53.514;10.482;2023-02-22T20:41:57;9.30;99.90
23683;DHT22;24897;53.514;10.482;2023-02-22T20:44:43;9.30;99.90
23683;DHT22;24897;53.514;10.482;2023-02-22T20:47:28;9.20;99.90
23683;DHT22;24897;53.514;10.482;2023-02-22T20:50:12;8.80;99.90
23683;DHT22;24897;53.514;10.482;2023-02-22T20:52:57;9.20;99.90
23683;DHT22;24897;53.514;10.482;2023-02-22T20:55:49;9.20;99.90
23683;DHT22;24897;53.514;10.482;2023-02-22T20:58:34;9.20;99.90
23683;DHT22;24897;53.514;10.482;2023-02-22T21:01:18;9.10;99.90
23683;DHT22;24897;53.514;10.482;2023-02-22T21:04:05;9.10;99.90
23683;DHT22;24897;53.514;10.482;2023-02-22T21:06:49;9.10;99.90
23683;DHT22;24897;53.514;10.482;2023-02-22T21:09:34;9.10;99.90
23683;DHT22;24897;53.514;10.482;2023-02-22T21:12:18;9.10;99.90
23683;DHT22;24897;53.514;10.482;2023-02-22T21:15:03;9.10;99.90
23683;DHT22;24897;53.514;10.482;2023-02-22T21:17:47;9.00;99.90
23683;DHT22;24897;53.514;10.482;2023-02-22T21:20:32;9.00;99.90
23683;DHT22;24897;53.514;10.482;2023-02-22T21:23:16;9.00;99.90
23683;DHT22;24897;53.514;10.482;2023-02-22T21:26:00;9.00;99.90
23683;DHT22;24897;53.514;10.482;2023-02-22T21:28:44;9.00;99.90
23683;DHT22;24897;53.514;10.482;2023-02-22T21:31:30;9.00;99.90
23683;DHT22;24897;53.514;10.482;2023-02-22T21:34:14;8.90;99.90
23683;DHT22;24897;53.514;10.482;2023-02-22T21:37:02;9.00;99.90
23683;DHT22;24897;53.514;10.482;2023-02-22T21:39:50;9.00;99.90
23683;DHT22;24897;53.514;10.482;2023-02-22T21:42:35;8.90;99.90
23683;DHT22;24897;53.514;10.482;2023-02-22T21:45:21;8.90;99.90
23683;DHT22;24897;53.514;10.482;2023-02-22T21:48:05;9.00;99.90
23683;DHT22;24897;53.514;10.482;2023-02-22T21:50:50;9.00;99.90
23683;DHT22;24897;53.514;10.482;2023-02-22T21:53:34;9.00;99.90
23683;DHT22;24897;53.514;10.482;2023-02-22T21:56:21;9.00;99.90
23683;DHT22;24897;53.514;10.482;2023-02-22T21:59:14;8.90;99.90
23683;DHT22;24897;53.514;10.482;2023-02-22T22:01:59;8.90;99.90